sensor_id;sensor_type;location;lat;lon;timestamp;P1;durP1;ratioP1;P2;durP2;ratioP2
53040;SDS011;39326;42.650;23.248;2023-02-28T00:00:21;21.67;;;18.93;;
53040;SDS011;39326;42.650;23.248;2023-02-28T00:02:47;24.30;;;19.87;;
53040;SDS011;39326;42.650;23.248;2023-02-28T00:05:14;23.57;;;19.77;;
53040;SDS011;39326;42.650;23.248;2023-02-28T00:07:42;22.77;;;19.87;;
53040;SDS011;39326;42.650;23.248;2023-02-28T00:10:08;22.67;;;20.27;;
53040;SDS011;39326;42.650;23.248;2023-02-28T00:12:36;21.37;;;19.07;;
53040;SDS011;39326;42.650;23.248;2023-02-28T00:15:10;22.73;;;19.37;;
53040;SDS011;39326;42.650;23.248;2023-02-28T00:17:36;19.53;;;17.53;;
53040;SDS011;39326;42.650;23.248;2023-02-28T00:20:02;20.23;;;17.70;;
53040;SDS011;39326;42.650;23.248;2023-02-28T00:22:29;20.83;;;18.60;;
53040;SDS011;39326;42.650;23.248;2023-02-28T00:24:55;23.30;;;20.47;;
53040;SDS011;39326;42.650;23.248;2023-02-28T00:27:20;23.97;;;19.73;;
53040;SDS011;39326;42.650;23.248;2023-02-28T00:29:46;18.57;;;16.57;;
53040;SDS011;39326;42.650;23.248;2023-02-28T00:32:12;20.27;;;17.60;;
53040;SDS011;39326;42.650;23.248;2023-02-28T00:34:37;18.27;;;16.47;;
53040;SDS011;39326;42.650;23.248;2023-02-28T00:37:06;19.27;;;17.37;;
53040;SDS011;39326;42.650;23.248;2023-02-28T00:39:35;16.73;;;15.03;;
53040;SDS011;39326;42.650;23.248;2023-02-28T00:42:02;13.00;;;11.53;;
53040;SDS011;39326;42.650;23.248;2023-02-28T00:44:28;12.70;;;11.43;;
53040;SDS011;39326;42.650;23.248;2023-02-28T00:46:55;15.60;;;13.43;;
53040;SDS011;39326;42.650;23.248;2023-02-28T00:49:21;13.73;;;12.37;;
53040;SDS011;39326;42.650;23.248;2023-02-28T00:51:47;13.13;;;11.83;;
53040;SDS011;39326;42.650;23.248;2023-02-28T00:54:12;13.17;;;11.77;;
53040;SDS011;39326;42.650;23.248;2023-02-28T00:56:37;53.10;;;16.20;;
53040;SDS011;39326;42.650;23.248;2023-02-28T00:59:03;15.57;;;12.90;;
53040;SDS011;39326;42.650;23.248;2023-02-28T01:01:28;22.53;;;15.03;;
53040;SDS011;39326;42.650;23.248;2023-02-28T01:03:54;15.83;;;14.07;;
53040;SDS011;39326;42.650;23.248;2023-02-28T01:06:19;24.70;;;14.70;;
53040;SDS011;39326;42.650;23.248;2023-02-28T01:08:45;73.17;;;17.13;;
53040;SDS011;39326;42.650;23.248;2023-02-28T01:11:11;17.30;;;15.67;;
53040;SDS011;39326;42.650;23.248;2023-02-28T01:13:37;18.10;;;15.37;;
53040;SDS011;39326;42.650;23.248;2023-02-28T01:16:03;66.43;;;19.87;;
53040;SDS011;39326;42.650;23.248;2023-02-28T01:18:29;32.97;;;18.43;;
53040;SDS011;39326;42.650;23.248;2023-02-28T01:20:55;20.67;;;17.57;;
53040;SDS011;39326;42.650;23.248;2023-02-28T01:23:21;66.07;;;20.20;;
53040;SDS011;39326;42.650;23.248;2023-02-28T01:25:48;24.37;;;19.13;;
53040;SDS011;39326;42.650;23.248;2023-02-28T01:28:14;70.77;;;22.63;;
53040;SDS011;39326;42.650;23.248;2023-02-28T01:30:40;22.67;;;20.27;;
53040;SDS011;39326;42.650;23.248;2023-02-28T01:33:05;135.73;;;23.90;;
53040;SDS011;39326;42.650;23.248;2023-02-28T01:35:34;310.63;;;30.10;;
53040;SDS011;39326;42.650;23.248;2023-02-28T01:38:00;591.83;;;40.30;;
53040;SDS011;39326;42.650;23.248;2023-02-28T01:40:26;284.40;;;30.20;;
53040;SDS011;39326;42.650;23.248;2023-02-28T01:42:51;844.87;;;51.80;;
53040;SDS011;39326;42.650;23.248;2023-02-28T01:47:49;891.23;;;56.23;;
53040;SDS011;39326;42.650;23.248;2023-02-28T01:50:27;367.77;;;30.03;;
53040;SDS011;39326;42.650;23.248;2023-02-28T01:52:56;308.30;;;26.80;;
53040;SDS011;39326;42.650;23.248;2023-02-28T01:55:26;151.00;;;21.47;;
53040;SDS011;39326;42.650;23.248;2023-02-28T01:57:55;777.90;;;51.13;;
53040;SDS011;39326;42.650;23.248;2023-02-28T02:00:24;368.47;;;28.47;;
53040;SDS011;39326;42.650;23.248;2023-02-28T02:02:54;368.37;;;31.27;;
53040;SDS011;39326;42.650;23.248;2023-02-28T02:05:26;289.10;;;28.87;;
53040;SDS011;39326;42.650;23.248;2023-02-28T02:07:57;327.27;;;28.87;;
53040;SDS011;39326;42.650;23.248;2023-02-28T02:15:40;422.53;;;29.37;;
53040;SDS011;39326;42.650;23.248;2023-02-28T02:33:22;178.57;;;24.10;;
53040;SDS011;39326;42.650;23.248;2023-02-28T02:36:14;282.90;;;25.53;;
53040;SDS011;39326;42.650;23.248;2023-02-28T02:46:44;445.67;;;33.90;;
53040;SDS011;39326;42.650;23.248;2023-02-28T02:49:55;204.50;;;20.67;;
53040;SDS011;39326;42.650;23.248;2023-02-28T02:52:05;241.53;;;22.63;;
53040;SDS011;39326;42.650;23.248;2023-02-28T02:54:35;101.03;;;16.93;;
53040;SDS011;39326;42.650;23.248;2023-02-28T02:57:08;336.47;;;27.53;;
53040;SDS011;39326;42.650;23.248;2023-02-28T02:59:38;114.90;;;18.70;;
53040;SDS011;39326;42.650;23.248;2023-02-28T03:02:06;54.47;;;15.53;;
53040;SDS011;39326;42.650;23.248;2023-02-28T03:04:43;76.00;;;17.47;;
53040;SDS011;39326;42.650;23.248;2023-02-28T03:07:13;137.43;;;18.70;;
53040;SDS011;39326;42.650;23.248;2023-02-28T03:09:39;298.83;;;24.00;;
53040;SDS011;39326;42.650;23.248;2023-02-28T03:12:04;149.63;;;19.97;;
53040;SDS011;39326;42.650;23.248;2023-02-28T03:14:56;50.30;;;14.37;;
53040;SDS011;39326;42.650;23.248;2023-02-28T03:25:31;60.60;;;15.10;;
53040;SDS011;39326;42.650;23.248;2023-02-28T03:33:36;45.97;;;15.40;;
53040;SDS011;39326;42.650;23.248;2023-02-28T03:36:27;67.80;;;16.03;;
53040;SDS011;39326;42.650;23.248;2023-02-28T03:41:43;176.67;;;21.63;;
53040;SDS011;39326;42.650;23.248;2023-02-28T03:44:25;118.13;;;20.10;;
53040;SDS011;39326;42.650;23.248;2023-02-28T03:52:13;174.70;;;21.73;;
53040;SDS011;39326;42.650;23.248;2023-02-28T03:54:44;165.97;;;21.50;;
53040;SDS011;39326;42.650;23.248;2023-02-28T04:00:04;128.37;;;19.30;;
53040;SDS011;39326;42.650;23.248;2023-02-28T04:02:43;78.70;;;16.43;;
53040;SDS011;39326;42.650;23.248;2023-02-28T04:05:09;129.73;;;17.30;;
53040;SDS011;39326;42.650;23.248;2023-02-28T04:07:35;161.17;;;20.40;;
53040;SDS011;39326;42.650;23.248;2023-02-28T04:10:01;143.70;;;19.60;;
53040;SDS011;39326;42.650;23.248;2023-02-28T04:12:28;41.93;;;15.50;;
53040;SDS011;39326;42.650;23.248;2023-02-28T04:14:53;144.60;;;17.10;;
53040;SDS011;39326;42.650;23.248;2023-02-28T04:17:18;93.60;;;15.17;;
53040;SDS011;39326;42.650;23.248;2023-02-28T04:19:44;89.50;;;15.60;;
53040;SDS011;39326;42.650;23.248;2023-02-28T04:22:09;41.60;;;12.57;;
53040;SDS011;39326;42.650;23.248;2023-02-28T04:24:35;100.73;;;16.33;;
53040;SDS011;39326;42.650;23.248;2023-02-28T04:27:01;88.97;;;14.30;;
53040;SDS011;39326;42.650;23.248;2023-02-28T04:29:28;132.03;;;17.93;;
53040;SDS011;39326;42.650;23.248;2023-02-28T04:31:57;57.30;;;14.00;;
53040;SDS011;39326;42.650;23.248;2023-02-28T04:34:24;40.77;;;13.07;;
53040;SDS011;39326;42.650;23.248;2023-02-28T04:36:50;59.93;;;14.63;;
53040;SDS011;39326;42.650;23.248;2023-02-28T04:39:16;29.77;;;13.10;;
53040;SDS011;39326;42.650;23.248;2023-02-28T04:41:43;217.57;;;24.13;;
53040;SDS011;39326;42.650;23.248;2023-02-28T04:44:09;45.57;;;14.70;;
53040;SDS011;39326;42.650;23.248;2023-02-28T04:46:35;98.70;;;17.67;;
53040;SDS011;39326;42.650;23.248;2023-02-28T04:49:00;339.83;;;31.30;;
53040;SDS011;39326;42.650;23.248;2023-02-28T04:51:26;242.83;;;26.43;;
53040;SDS011;39326;42.650;23.248;2023-02-28T04:53:52;35.50;;;16.47;;
53040;SDS011;39326;42.650;23.248;2023-02-28T04:56:18;76.67;;;17.53;;
53040;SDS011;39326;42.650;23.248;2023-02-28T04:58:43;59.10;;;16.40;;
53040;SDS011;39326;42.650;23.248;2023-02-28T05:01:20;33.90;;;15.20;;
53040;SDS011;39326;42.650;23.248;2023-02-28T05:03:46;18.40;;;13.90;;
53040;SDS011;39326;42.650;23.248;2023-02-28T05:06:13;33.23;;;15.77;;
53040;SDS011;39326;42.650;23.248;2023-02-28T05:08:39;51.83;;;15.83;;
53040;SDS011;39326;42.650;23.248;2023-02-28T05:11:06;18.30;;;13.03;;
53040;SDS011;39326;42.650;23.248;2023-02-28T05:13:37;21.67;;;14.83;;
53040;SDS011;39326;42.650;23.248;2023-02-28T05:16:02;32.90;;;15.53;;
53040;SDS011;39326;42.650;23.248;2023-02-28T05:18:28;71.60;;;17.63;;
53040;SDS011;39326;42.650;23.248;2023-02-28T05:20:53;122.03;;;19.87;;
53040;SDS011;39326;42.650;23.248;2023-02-28T05:23:18;68.77;;;17.40;;
53040;SDS011;39326;42.650;23.248;2023-02-28T05:25:47;48.10;;;16.87;;
53040;SDS011;39326;42.650;23.248;2023-02-28T05:28:12;43.20;;;14.77;;
53040;SDS011;39326;42.650;23.248;2023-02-28T05:30:38;19.80;;;15.87;;
53040;SDS011;39326;42.650;23.248;2023-02-28T05:33:03;33.33;;;16.63;;
53040;SDS011;39326;42.650;23.248;2023-02-28T05:35:28;143.20;;;19.57;;
53040;SDS011;39326;42.650;23.248;2023-02-28T05:37:54;59.87;;;16.27;;
53040;SDS011;39326;42.650;23.248;2023-02-28T05:40:19;67.73;;;17.23;;
53040;SDS011;39326;42.650;23.248;2023-02-28T05:42:45;47.40;;;15.73;;
53040;SDS011;39326;42.650;23.248;2023-02-28T05:45:11;76.60;;;17.97;;
53040;SDS011;39326;42.650;23.248;2023-02-28T05:47:37;32.10;;;16.83;;
53040;SDS011;39326;42.650;23.248;2023-02-28T05:50:03;36.27;;;16.20;;
53040;SDS011;39326;42.650;23.248;2023-02-28T05:52:29;51.47;;;15.43;;
53040;SDS011;39326;42.650;23.248;2023-02-28T05:54:55;23.57;;;15.23;;
53040;SDS011;39326;42.650;23.248;2023-02-28T05:57:21;25.37;;;15.97;;
53040;SDS011;39326;42.650;23.248;2023-02-28T05:59:47;38.37;;;16.67;;
53040;SDS011;39326;42.650;23.248;2023-02-28T06:02:13;106.37;;;19.53;;
53040;SDS011;39326;42.650;23.248;2023-02-28T06:04:40;47.37;;;17.77;;
53040;SDS011;39326;42.650;23.248;2023-02-28T06:07:06;41.43;;;16.70;;
53040;SDS011;39326;42.650;23.248;2023-02-28T06:09:32;53.80;;;17.37;;
53040;SDS011;39326;42.650;23.248;2023-02-28T06:11:58;402.27;;;36.27;;
53040;SDS011;39326;42.650;23.248;2023-02-28T06:14:24;27.50;;;14.87;;
53040;SDS011;39326;42.650;23.248;2023-02-28T06:16:50;28.37;;;15.40;;
53040;SDS011;39326;42.650;23.248;2023-02-28T06:19:16;34.10;;;16.03;;
53040;SDS011;39326;42.650;23.248;2023-02-28T06:21:42;187.17;;;24.20;;
53040;SDS011;39326;42.650;23.248;2023-02-28T06:24:08;116.47;;;21.10;;
53040;SDS011;39326;42.650;23.248;2023-02-28T06:26:34;29.70;;;17.70;;
53040;SDS011;39326;42.650;23.248;2023-02-28T06:28:59;48.43;;;18.10;;
53040;SDS011;39326;42.650;23.248;2023-02-28T06:31:26;21.50;;;15.10;;
53040;SDS011;39326;42.650;23.248;2023-02-28T06:33:51;20.00;;;16.13;;
53040;SDS011;39326;42.650;23.248;2023-02-28T06:36:17;19.90;;;16.83;;
53040;SDS011;39326;42.650;23.248;2023-02-28T06:38:42;24.13;;;16.93;;
53040;SDS011;39326;42.650;23.248;2023-02-28T06:41:08;41.13;;;19.33;;
53040;SDS011;39326;42.650;23.248;2023-02-28T06:43:39;23.50;;;19.97;;
53040;SDS011;39326;42.650;23.248;2023-02-28T06:46:06;25.20;;;18.13;;
53040;SDS011;39326;42.650;23.248;2023-02-28T06:48:33;25.83;;;21.57;;
53040;SDS011;39326;42.650;23.248;2023-02-28T06:51:07;27.50;;;21.33;;
53040;SDS011;39326;42.650;23.248;2023-02-28T06:53:38;20.87;;;17.83;;
53040;SDS011;39326;42.650;23.248;2023-02-28T06:56:06;25.03;;;19.47;;
53040;SDS011;39326;42.650;23.248;2023-02-28T06:58:32;22.30;;;19.13;;
53040;SDS011;39326;42.650;23.248;2023-02-28T07:00:59;22.40;;;19.27;;
53040;SDS011;39326;42.650;23.248;2023-02-28T07:03:24;23.13;;;19.47;;
53040;SDS011;39326;42.650;23.248;2023-02-28T07:05:50;24.57;;;19.03;;
53040;SDS011;39326;42.650;23.248;2023-02-28T07:08:15;27.53;;;17.93;;
53040;SDS011;39326;42.650;23.248;2023-02-28T07:10:41;35.93;;;20.50;;
53040;SDS011;39326;42.650;23.248;2023-02-28T07:13:07;29.50;;;20.53;;
53040;SDS011;39326;42.650;23.248;2023-02-28T07:15:33;62.13;;;24.27;;
53040;SDS011;39326;42.650;23.248;2023-02-28T07:18:00;30.50;;;23.33;;
53040;SDS011;39326;42.650;23.248;2023-02-28T07:20:25;27.27;;;23.97;;
53040;SDS011;39326;42.650;23.248;2023-02-28T07:22:50;67.53;;;25.80;;
53040;SDS011;39326;42.650;23.248;2023-02-28T07:25:24;34.97;;;25.57;;
53040;SDS011;39326;42.650;23.248;2023-02-28T07:27:51;32.40;;;26.07;;
53040;SDS011;39326;42.650;23.248;2023-02-28T07:30:17;49.47;;;27.73;;
53040;SDS011;39326;42.650;23.248;2023-02-28T07:32:43;62.93;;;27.30;;
53040;SDS011;39326;42.650;23.248;2023-02-28T07:35:08;457.13;;;46.40;;
53040;SDS011;39326;42.650;23.248;2023-02-28T07:37:34;100.33;;;28.30;;
53040;SDS011;39326;42.650;23.248;2023-02-28T07:40:05;82.80;;;30.87;;
53040;SDS011;39326;42.650;23.248;2023-02-28T07:42:39;251.53;;;38.53;;
53040;SDS011;39326;42.650;23.248;2023-02-28T07:45:06;401.87;;;44.43;;
53040;SDS011;39326;42.650;23.248;2023-02-28T07:47:33;226.23;;;35.80;;
53040;SDS011;39326;42.650;23.248;2023-02-28T07:49:59;322.57;;;37.00;;
53040;SDS011;39326;42.650;23.248;2023-02-28T07:52:25;323.50;;;44.90;;
53040;SDS011;39326;42.650;23.248;2023-02-28T07:54:50;231.67;;;36.63;;
53040;SDS011;39326;42.650;23.248;2023-02-28T07:57:16;368.43;;;44.73;;
53040;SDS011;39326;42.650;23.248;2023-02-28T07:59:42;670.30;;;56.33;;
53040;SDS011;39326;42.650;23.248;2023-02-28T08:02:14;413.60;;;45.47;;
53040;SDS011;39326;42.650;23.248;2023-02-28T08:04:40;76.87;;;33.43;;
53040;SDS011;39326;42.650;23.248;2023-02-28T08:07:06;82.70;;;33.10;;
53040;SDS011;39326;42.650;23.248;2023-02-28T08:09:31;84.83;;;34.27;;
53040;SDS011;39326;42.650;23.248;2023-02-28T08:11:57;497.23;;;50.53;;
53040;SDS011;39326;42.650;23.248;2023-02-28T08:14:22;152.20;;;34.63;;
53040;SDS011;39326;42.650;23.248;2023-02-28T08:16:48;533.17;;;52.47;;
53040;SDS011;39326;42.650;23.248;2023-02-28T08:19:13;392.93;;;47.93;;
53040;SDS011;39326;42.650;23.248;2023-02-28T08:21:39;611.10;;;55.87;;
53040;SDS011;39326;42.650;23.248;2023-02-28T08:24:05;124.57;;;37.20;;
53040;SDS011;39326;42.650;23.248;2023-02-28T08:26:30;262.50;;;40.07;;
53040;SDS011;39326;42.650;23.248;2023-02-28T08:28:56;120.87;;;36.73;;
53040;SDS011;39326;42.650;23.248;2023-02-28T08:31:21;135.63;;;37.67;;
53040;SDS011;39326;42.650;23.248;2023-02-28T08:33:48;70.63;;;36.90;;
53040;SDS011;39326;42.650;23.248;2023-02-28T08:36:16;93.40;;;34.60;;
53040;SDS011;39326;42.650;23.248;2023-02-28T08:38:41;181.17;;;39.77;;
53040;SDS011;39326;42.650;23.248;2023-02-28T08:41:07;127.30;;;38.53;;
53040;SDS011;39326;42.650;23.248;2023-02-28T08:43:36;53.20;;;34.90;;
53040;SDS011;39326;42.650;23.248;2023-02-28T08:46:02;114.97;;;39.97;;
53040;SDS011;39326;42.650;23.248;2023-02-28T08:48:29;68.47;;;39.17;;
53040;SDS011;39326;42.650;23.248;2023-02-28T08:53:27;205.80;;;39.33;;
53040;SDS011;39326;42.650;23.248;2023-02-28T08:55:56;61.13;;;36.13;;
53040;SDS011;39326;42.650;23.248;2023-02-28T08:58:22;56.37;;;34.57;;
53040;SDS011;39326;42.650;23.248;2023-02-28T09:00:47;70.33;;;35.40;;
53040;SDS011;39326;42.650;23.248;2023-02-28T09:09:23;44.23;;;32.90;;
53040;SDS011;39326;42.650;23.248;2023-02-28T09:11:48;53.97;;;36.40;;
53040;SDS011;39326;42.650;23.248;2023-02-28T09:14:13;51.40;;;34.83;;
53040;SDS011;39326;42.650;23.248;2023-02-28T09:16:39;58.63;;;36.70;;
53040;SDS011;39326;42.650;23.248;2023-02-28T09:19:04;50.47;;;36.97;;
53040;SDS011;39326;42.650;23.248;2023-02-28T09:21:30;52.90;;;37.13;;
53040;SDS011;39326;42.650;23.248;2023-02-28T09:23:55;55.00;;;38.90;;
53040;SDS011;39326;42.650;23.248;2023-02-28T09:26:22;66.77;;;40.13;;
53040;SDS011;39326;42.650;23.248;2023-02-28T09:28:49;103.30;;;45.73;;
53040;SDS011;39326;42.650;23.248;2023-02-28T09:31:17;53.57;;;39.13;;
53040;SDS011;39326;42.650;23.248;2023-02-28T09:33:48;57.43;;;41.00;;
53040;SDS011;39326;42.650;23.248;2023-02-28T09:36:15;43.90;;;33.97;;
53040;SDS011;39326;42.650;23.248;2023-02-28T09:38:41;53.60;;;38.37;;
53040;SDS011;39326;42.650;23.248;2023-02-28T09:41:14;50.00;;;38.03;;
53040;SDS011;39326;42.650;23.248;2023-02-28T09:44:00;53.83;;;39.73;;
53040;SDS011;39326;42.650;23.248;2023-02-28T09:46:36;58.90;;;40.40;;
53040;SDS011;39326;42.650;23.248;2023-02-28T09:49:16;47.93;;;37.53;;
53040;SDS011;39326;42.650;23.248;2023-02-28T09:51:50;45.80;;;35.70;;
53040;SDS011;39326;42.650;23.248;2023-02-28T09:54:23;46.43;;;36.07;;
53040;SDS011;39326;42.650;23.248;2023-02-28T09:56:51;46.87;;;36.13;;
53040;SDS011;39326;42.650;23.248;2023-02-28T09:59:36;50.27;;;37.67;;
53040;SDS011;39326;42.650;23.248;2023-02-28T10:05:13;48.70;;;38.53;;
53040;SDS011;39326;42.650;23.248;2023-02-28T10:15:46;55.83;;;40.17;;
53040;SDS011;39326;42.650;23.248;2023-02-28T10:18:19;52.60;;;39.03;;
53040;SDS011;39326;42.650;23.248;2023-02-28T10:20:49;56.30;;;40.77;;
53040;SDS011;39326;42.650;23.248;2023-02-28T10:23:21;59.70;;;42.53;;
53040;SDS011;39326;42.650;23.248;2023-02-28T10:26:03;55.23;;;42.17;;
53040;SDS011;39326;42.650;23.248;2023-02-28T10:28:36;44.93;;;34.53;;
53040;SDS011;39326;42.650;23.248;2023-02-28T10:31:01;44.93;;;36.33;;
53040;SDS011;39326;42.650;23.248;2023-02-28T10:33:34;43.63;;;34.87;;
53040;SDS011;39326;42.650;23.248;2023-02-28T10:36:00;41.70;;;33.83;;
53040;SDS011;39326;42.650;23.248;2023-02-28T10:38:34;42.57;;;32.57;;
53040;SDS011;39326;42.650;23.248;2023-02-28T10:43:30;40.27;;;33.07;;
53040;SDS011;39326;42.650;23.248;2023-02-28T10:50:52;38.47;;;32.00;;
53040;SDS011;39326;42.650;23.248;2023-02-28T10:58:42;31.43;;;26.43;;
53040;SDS011;39326;42.650;23.248;2023-02-28T11:03:57;31.10;;;22.20;;
53040;SDS011;39326;42.650;23.248;2023-02-28T11:06:24;24.00;;;21.30;;
53040;SDS011;39326;42.650;23.248;2023-02-28T11:08:59;32.17;;;22.20;;
53040;SDS011;39326;42.650;23.248;2023-02-28T11:11:27;25.40;;;17.40;;
53040;SDS011;39326;42.650;23.248;2023-02-28T11:13:57;35.80;;;32.10;;
53040;SDS011;39326;42.650;23.248;2023-02-28T11:16:33;21.33;;;17.13;;
53040;SDS011;39326;42.650;23.248;2023-02-28T11:19:02;18.83;;;15.27;;
53040;SDS011;39326;42.650;23.248;2023-02-28T11:21:31;19.27;;;15.33;;
53040;SDS011;39326;42.650;23.248;2023-02-28T11:24:06;20.93;;;16.67;;
53040;SDS011;39326;42.650;23.248;2023-02-28T11:26:44;18.47;;;15.00;;
53040;SDS011;39326;42.650;23.248;2023-02-28T11:29:16;17.60;;;14.17;;
53040;SDS011;39326;42.650;23.248;2023-02-28T11:34:30;21.47;;;16.07;;
53040;SDS011;39326;42.650;23.248;2023-02-28T11:36:57;21.47;;;14.77;;
53040;SDS011;39326;42.650;23.248;2023-02-28T11:39:25;20.93;;;13.87;;
53040;SDS011;39326;42.650;23.248;2023-02-28T11:52:43;30.90;;;26.33;;
53040;SDS011;39326;42.650;23.248;2023-02-28T12:03:27;15.70;;;13.03;;
53040;SDS011;39326;42.650;23.248;2023-02-28T12:08:27;17.70;;;13.37;;
53040;SDS011;39326;42.650;23.248;2023-02-28T12:19:18;14.10;;;10.73;;
53040;SDS011;39326;42.650;23.248;2023-02-28T12:25:09;59.30;;;52.30;;
53040;SDS011;39326;42.650;23.248;2023-02-28T12:27:47;124.93;;;108.17;;
53040;SDS011;39326;42.650;23.248;2023-02-28T12:33:01;17.20;;;10.53;;
53040;SDS011;39326;42.650;23.248;2023-02-28T12:38:22;17.73;;;12.57;;
53040;SDS011;39326;42.650;23.248;2023-02-28T12:40:52;19.33;;;14.47;;
53040;SDS011;39326;42.650;23.248;2023-02-28T12:43:22;21.67;;;16.47;;
53040;SDS011;39326;42.650;23.248;2023-02-28T12:46:11;17.40;;;15.40;;
53040;SDS011;39326;42.650;23.248;2023-02-28T12:48:50;18.43;;;12.63;;
53040;SDS011;39326;42.650;23.248;2023-02-28T12:51:21;19.53;;;12.57;;
53040;SDS011;39326;42.650;23.248;2023-02-28T12:53:51;16.63;;;12.27;;
53040;SDS011;39326;42.650;23.248;2023-02-28T12:59:44;21.67;;;15.13;;
53040;SDS011;39326;42.650;23.248;2023-02-28T13:02:47;21.20;;;15.93;;
53040;SDS011;39326;42.650;23.248;2023-02-28T13:05:39;21.20;;;18.23;;
53040;SDS011;39326;42.650;23.248;2023-02-28T13:11:25;20.60;;;13.63;;
53040;SDS011;39326;42.650;23.248;2023-02-28T13:14:05;19.23;;;12.40;;
53040;SDS011;39326;42.650;23.248;2023-02-28T13:19:34;19.07;;;12.87;;
53040;SDS011;39326;42.650;23.248;2023-02-28T13:22:02;17.77;;;13.20;;
53040;SDS011;39326;42.650;23.248;2023-02-28T13:24:37;19.17;;;13.77;;
53040;SDS011;39326;42.650;23.248;2023-02-28T13:39:58;18.03;;;13.00;;
53040;SDS011;39326;42.650;23.248;2023-02-28T13:47:36;18.07;;;13.50;;
53040;SDS011;39326;42.650;23.248;2023-02-28T13:55:45;16.27;;;12.43;;
53040;SDS011;39326;42.650;23.248;2023-02-28T14:06:55;15.83;;;12.17;;
53040;SDS011;39326;42.650;23.248;2023-02-28T14:09:45;20.47;;;12.83;;
53040;SDS011;39326;42.650;23.248;2023-02-28T14:15:34;19.10;;;12.93;;
53040;SDS011;39326;42.650;23.248;2023-02-28T14:18:26;18.30;;;12.00;;
53040;SDS011;39326;42.650;23.248;2023-02-28T14:20:58;20.30;;;13.57;;
53040;SDS011;39326;42.650;23.248;2023-02-28T14:32:15;20.17;;;12.40;;
53040;SDS011;39326;42.650;23.248;2023-02-28T14:38:05;18.03;;;11.50;;
53040;SDS011;39326;42.650;23.248;2023-02-28T14:40:38;17.53;;;10.97;;
53040;SDS011;39326;42.650;23.248;2023-02-28T14:43:04;17.50;;;11.93;;
53040;SDS011;39326;42.650;23.248;2023-02-28T14:45:32;16.37;;;11.87;;
53040;SDS011;39326;42.650;23.248;2023-02-28T14:48:01;16.13;;;12.30;;
53040;SDS011;39326;42.650;23.248;2023-02-28T14:50:30;19.00;;;11.47;;
53040;SDS011;39326;42.650;23.248;2023-02-28T14:52:59;14.03;;;10.67;;
53040;SDS011;39326;42.650;23.248;2023-02-28T14:55:32;16.23;;;10.17;;
53040;SDS011;39326;42.650;23.248;2023-02-28T14:58:04;13.93;;;9.67;;
53040;SDS011;39326;42.650;23.248;2023-02-28T15:00:35;17.27;;;9.47;;
53040;SDS011;39326;42.650;23.248;2023-02-28T15:06:05;17.50;;;11.70;;
53040;SDS011;39326;42.650;23.248;2023-02-28T15:08:37;18.90;;;10.90;;
53040;SDS011;39326;42.650;23.248;2023-02-28T15:11:12;16.20;;;10.33;;
53040;SDS011;39326;42.650;23.248;2023-02-28T15:13:40;17.03;;;10.27;;
53040;SDS011;39326;42.650;23.248;2023-02-28T15:16:20;13.77;;;9.70;;
53040;SDS011;39326;42.650;23.248;2023-02-28T15:21:27;18.57;;;11.87;;
53040;SDS011;39326;42.650;23.248;2023-02-28T15:26:37;15.63;;;10.93;;
53040;SDS011;39326;42.650;23.248;2023-02-28T15:29:13;16.07;;;11.40;;
53040;SDS011;39326;42.650;23.248;2023-02-28T15:31:46;13.43;;;11.50;;
53040;SDS011;39326;42.650;23.248;2023-02-28T15:34:21;17.93;;;11.23;;
53040;SDS011;39326;42.650;23.248;2023-02-28T15:36:52;19.87;;;13.00;;
53040;SDS011;39326;42.650;23.248;2023-02-28T15:39:19;21.13;;;13.10;;
53040;SDS011;39326;42.650;23.248;2023-02-28T15:41:46;16.37;;;9.80;;
53040;SDS011;39326;42.650;23.248;2023-02-28T15:47:03;16.20;;;10.40;;
53040;SDS011;39326;42.650;23.248;2023-02-28T15:49:37;19.40;;;12.30;;
53040;SDS011;39326;42.650;23.248;2023-02-28T15:52:09;14.67;;;11.37;;
53040;SDS011;39326;42.650;23.248;2023-02-28T15:54:40;14.30;;;11.73;;
53040;SDS011;39326;42.650;23.248;2023-02-28T15:57:10;14.77;;;10.70;;
53040;SDS011;39326;42.650;23.248;2023-02-28T15:59:42;15.73;;;11.20;;
53040;SDS011;39326;42.650;23.248;2023-02-28T16:02:17;18.07;;;12.90;;
53040;SDS011;39326;42.650;23.248;2023-02-28T16:07:25;18.80;;;11.07;;
53040;SDS011;39326;42.650;23.248;2023-02-28T16:09:52;13.80;;;11.43;;
53040;SDS011;39326;42.650;23.248;2023-02-28T16:12:18;14.70;;;11.73;;
53040;SDS011;39326;42.650;23.248;2023-02-28T16:14:45;16.33;;;11.10;;
53040;SDS011;39326;42.650;23.248;2023-02-28T16:17:20;14.70;;;11.87;;
53040;SDS011;39326;42.650;23.248;2023-02-28T16:19:53;12.73;;;9.97;;
53040;SDS011;39326;42.650;23.248;2023-02-28T16:22:19;12.90;;;9.27;;
53040;SDS011;39326;42.650;23.248;2023-02-28T16:24:45;12.27;;;9.97;;
53040;SDS011;39326;42.650;23.248;2023-02-28T16:27:17;12.43;;;9.40;;
53040;SDS011;39326;42.650;23.248;2023-02-28T16:29:50;11.47;;;9.20;;
53040;SDS011;39326;42.650;23.248;2023-02-28T16:32:16;12.17;;;8.87;;
53040;SDS011;39326;42.650;23.248;2023-02-28T16:34:42;10.90;;;9.87;;
53040;SDS011;39326;42.650;23.248;2023-02-28T16:37:10;11.93;;;9.80;;
53040;SDS011;39326;42.650;23.248;2023-02-28T16:39:37;12.73;;;11.43;;
53040;SDS011;39326;42.650;23.248;2023-02-28T16:42:02;12.40;;;10.43;;
53040;SDS011;39326;42.650;23.248;2023-02-28T16:44:32;12.60;;;10.40;;
53040;SDS011;39326;42.650;23.248;2023-02-28T16:47:00;7.73;;;6.40;;
53040;SDS011;39326;42.650;23.248;2023-02-28T16:49:26;9.80;;;8.80;;
53040;SDS011;39326;42.650;23.248;2023-02-28T16:51:52;10.40;;;8.57;;
53040;SDS011;39326;42.650;23.248;2023-02-28T16:54:18;13.23;;;10.20;;
53040;SDS011;39326;42.650;23.248;2023-02-28T16:56:44;12.97;;;8.83;;
53040;SDS011;39326;42.650;23.248;2023-02-28T16:59:11;11.53;;;9.63;;
53040;SDS011;39326;42.650;23.248;2023-02-28T17:01:38;9.93;;;8.80;;
53040;SDS011;39326;42.650;23.248;2023-02-28T17:04:04;9.43;;;8.43;;
53040;SDS011;39326;42.650;23.248;2023-02-28T17:06:30;10.27;;;9.20;;
53040;SDS011;39326;42.650;23.248;2023-02-28T17:08:56;12.50;;;9.50;;
53040;SDS011;39326;42.650;23.248;2023-02-28T17:11:24;10.17;;;8.83;;
53040;SDS011;39326;42.650;23.248;2023-02-28T17:13:51;10.20;;;9.10;;
53040;SDS011;39326;42.650;23.248;2023-02-28T17:16:26;8.90;;;7.63;;
53040;SDS011;39326;42.650;23.248;2023-02-28T17:19:02;11.27;;;8.27;;
53040;SDS011;39326;42.650;23.248;2023-02-28T17:21:29;9.20;;;7.97;;
53040;SDS011;39326;42.650;23.248;2023-02-28T17:23:56;9.07;;;7.50;;
53040;SDS011;39326;42.650;23.248;2023-02-28T17:26:24;8.43;;;7.03;;
53040;SDS011;39326;42.650;23.248;2023-02-28T17:28:50;10.40;;;8.27;;
53040;SDS011;39326;42.650;23.248;2023-02-28T17:31:17;7.30;;;6.53;;
53040;SDS011;39326;42.650;23.248;2023-02-28T17:33:43;10.67;;;8.67;;
53040;SDS011;39326;42.650;23.248;2023-02-28T17:36:10;8.93;;;7.20;;
53040;SDS011;39326;42.650;23.248;2023-02-28T17:38:39;7.27;;;6.57;;
53040;SDS011;39326;42.650;23.248;2023-02-28T17:41:05;11.00;;;8.87;;